Accueil
METAR-TAF:

METAR-TAF

Aéroports :

Aéroport de Bethel

Bethel, Alaska, États-Unis

latitude: 60-46-47N, longitude: 161-50-16W, altitude: 38 m

Observation

Le bulletin a été fait il y a 37 minutes, à 05:53 UTC
Vent 5 kt de ouest/nord-ouest
Température 18°C
Humidité 64%
Pression 1005 hPa
Visibilité: 16.1 km
Quelques nuages à une hauteur de 5500 ft

METAR: PABE 120553Z 29005KT 10SM FEW055 18/11 A2969 RMK AO2 SLP054 T01780106 10200 20178 56005

Heure: 22:30 (06:30 UTC)

Prévision

Le bulletin a été fait il y a 50 minutes, à 05:40 UTC
Prévision valable du 12 à 06 UTC au 13 à 06 UTC
Vent 6 kt de ouest/nord-ouest
Visibilité: 10 km
Quelques nuages à une hauteur de 5000 ft
Nuages fragmentés à une hauteur de 12000 ft

TAF: PABE 120540Z 1206/1306 30006KT P6SM FEW050 BKN120

Observations et prévisions météorologiques de plus de 4000 aéroports (messages METAR et TAF).

Les stations disponibles sont représentées par des disques jaunes et rouges sur la carte.

Passer la souris dessus pour voir le nom de la station.

Cliquer dessus pour voir les observations et prévisions météorologiques.

Pour changer de carte: cliquez sur les boutons verts avec une croix noire pour zoomer, sur le bouton vert avec un tiret pour effectuer un zoom arrière, ou sur les flèches vertes pour les cartes adjacentes.


METAR-TAF: